Altamonte Springs, Florida
Current Conditions -  °F | °C
As of 3:53 PM on Sunday 23 Nov 2014 (Local Time) from KORL Reporting Station
Clear Clear  
Wind Chill: 84°   Ceiling: Unl
Heat Index: 89°   Visibility: 10mi
Dew Point: 71°   Wind: 15mph
Humidity: 65%   Direction: 190°S
Pressure: 29.87"   Gusts: NA
Location:  28.67°N, 81.36°W
Report Text: KORL 232053Z AUTO 19013KT 10SM CLR 29/22 A2987 RMK AO2 SLP117 T02890217 56020
Loading
Personal Weather Stations






























Interactive Weather Map New forecast layout! Learn more

10-Day Weather Forecast

Advertisements
Track Severe Weather on mobile